createdAt,value
2024-01-10T00:01:05.184Z,-6.73
2024-01-10T00:03:33.721Z,-6.80
2024-01-10T00:06:02.076Z,-6.80
2024-01-10T00:08:33.338Z,-6.86
2024-01-10T00:11:03.179Z,-6.76
2024-01-10T00:13:33.623Z,-6.82
2024-01-10T00:16:02.500Z,-6.89
2024-01-10T00:18:30.836Z,-6.84
2024-01-10T00:20:59.237Z,-6.78
2024-01-10T00:23:27.579Z,-6.77
2024-01-10T00:25:59.174Z,-6.87
2024-01-10T00:28:28.766Z,-6.95
2024-01-10T00:30:57.247Z,-7.06
2024-01-10T00:33:25.829Z,-7.03
2024-01-10T00:35:54.130Z,-7.03
2024-01-10T00:38:22.426Z,-7.05
2024-01-10T00:40:50.831Z,-6.92
2024-01-10T00:43:19.227Z,-6.83
2024-01-10T00:45:48.890Z,-6.63
2024-01-10T00:48:18.508Z,-6.62
2024-01-10T00:50:46.979Z,-6.74
2024-01-10T00:53:15.625Z,-6.80
2024-01-10T00:55:43.951Z,-7.09
2024-01-10T00:58:12.285Z,-7.29
2024-01-10T01:00:40.589Z,-7.42
2024-01-10T01:03:10.713Z,-7.30
2024-01-10T01:05:39.690Z,-7.43
2024-01-10T01:08:08.592Z,-7.54
2024-01-10T01:10:38.378Z,-7.65
2024-01-10T01:13:06.916Z,-7.53
2024-01-10T01:15:35.211Z,-7.50
2024-01-10T01:18:03.806Z,-7.55
2024-01-10T01:20:33.688Z,-7.58
2024-01-10T01:23:02.147Z,-7.67
2024-01-10T01:25:30.461Z,-7.48
2024-01-10T01:27:58.719Z,-7.63
2024-01-10T01:30:27.260Z,-7.64
2024-01-10T01:32:55.570Z,-7.66
2024-01-10T01:35:24.916Z,-7.74
2024-01-10T01:37:54.646Z,-7.51
2024-01-10T01:40:23.075Z,-7.72
2024-01-10T01:42:51.424Z,-7.80
2024-01-10T01:45:19.905Z,-7.92
2024-01-10T01:47:48.230Z,-8.05
2024-01-10T01:50:16.840Z,-7.95
2024-01-10T01:52:45.971Z,-8.01
2024-01-10T01:55:16.024Z,-7.99
2024-01-10T01:57:44.377Z,-8.21
2024-01-10T02:00:13.404Z,-8.18
2024-01-10T02:02:42.556Z,-8.13
2024-01-10T02:05:11.302Z,-8.14
2024-01-10T02:07:39.671Z,-7.95
2024-01-10T02:10:08.906Z,-8.23
2024-01-10T02:12:38.666Z,-7.99
2024-01-10T02:15:07.907Z,-7.76
2024-01-10T02:17:36.196Z,-7.87
2024-01-10T02:20:11.711Z,-7.93
2024-01-10T02:22:43.015Z,-8.14
2024-01-10T02:25:12.867Z,-8.25
2024-01-10T02:27:41.811Z,-8.41
2024-01-10T02:30:12.284Z,-8.55
2024-01-10T02:32:40.678Z,-8.60
2024-01-10T02:35:10.528Z,-8.61
2024-01-10T02:37:38.976Z,-8.56
2024-01-10T02:40:08.668Z,-8.62
2024-01-10T02:42:38.419Z,-8.51
2024-01-10T02:45:07.410Z,-8.51
2024-01-10T02:47:36.062Z,-8.56
2024-01-10T02:50:04.561Z,-8.74
2024-01-10T02:52:32.963Z,-8.61
2024-01-10T02:55:01.361Z,-8.70
2024-01-10T02:57:29.693Z,-8.82
2024-01-10T02:59:59.369Z,-8.88
2024-01-10T03:02:27.878Z,-8.95
2024-01-10T03:04:56.733Z,-8.95
2024-01-10T03:07:26.051Z,-8.77
2024-01-10T03:09:54.443Z,-8.96
2024-01-10T03:12:22.781Z,-8.99
2024-01-10T03:14:51.059Z,-9.08
2024-01-10T03:17:20.786Z,-9.13
2024-01-10T03:19:49.218Z,-9.11
2024-01-10T03:22:17.508Z,-9.27
2024-01-10T03:24:45.751Z,-9.21
2024-01-10T03:27:14.040Z,-9.20
2024-01-10T03:29:42.491Z,-9.23
2024-01-10T03:32:10.988Z,-9.00
2024-01-10T03:34:40.766Z,-8.96
2024-01-10T03:37:09.063Z,-9.10
2024-01-10T03:39:37.284Z,-9.07
2024-01-10T03:42:05.976Z,-8.96
2024-01-10T03:44:34.334Z,-8.82
2024-01-10T03:47:02.576Z,-8.95
2024-01-10T03:49:31.037Z,-8.94
2024-01-10T03:52:00.823Z,-8.81
2024-01-10T03:54:29.139Z,-8.63
2024-01-10T03:56:57.367Z,-8.79
2024-01-10T03:59:25.688Z,-8.92
2024-01-10T04:01:53.979Z,-9.04
2024-01-10T04:04:23.761Z,-9.19
2024-01-10T04:06:52.005Z,-9.21
2024-01-10T04:09:21.668Z,-9.27
2024-01-10T04:11:50.093Z,-9.21
2024-01-10T04:14:18.333Z,-9.06
2024-01-10T04:16:46.589Z,-9.24
2024-01-10T04:19:15.042Z,-9.34
2024-01-10T04:21:43.473Z,-9.36
2024-01-10T04:24:11.781Z,-9.35
2024-01-10T04:26:41.441Z,-9.19
2024-01-10T04:29:09.899Z,-9.25
2024-01-10T04:31:38.548Z,-9.12
2024-01-10T04:34:06.867Z,-9.26
2024-01-10T04:36:35.386Z,-9.44
2024-01-10T04:39:03.991Z,-9.43
2024-01-10T04:41:32.300Z,-9.39
2024-01-10T04:44:02.211Z,-9.45
2024-01-10T04:46:30.579Z,-9.46
2024-01-10T04:48:58.778Z,-9.56
2024-01-10T04:51:27.004Z,-9.61
2024-01-10T04:53:55.943Z,-9.66
2024-01-10T04:56:24.333Z,-9.76
2024-01-10T04:58:52.733Z,-9.62
2024-01-10T05:01:22.371Z,-9.70
2024-01-10T05:03:49.680Z,-9.65
2024-01-10T05:06:20.232Z,-9.76
2024-01-10T05:08:48.519Z,-9.77
2024-01-10T05:11:17.862Z,-9.75
2024-01-10T05:13:46.452Z,-9.80
2024-01-10T05:16:14.784Z,-9.82
2024-01-10T05:18:44.499Z,-9.91
2024-01-10T05:21:12.894Z,-9.87
2024-01-10T05:23:41.554Z,-9.62
2024-01-10T05:26:10.020Z,-9.72
2024-01-10T05:28:38.480Z,-9.71
2024-01-10T05:31:07.357Z,-9.75
2024-01-10T05:33:36.057Z,-9.89
2024-01-10T05:36:06.144Z,-9.88
2024-01-10T05:38:34.477Z,-9.98
2024-01-10T05:41:03.194Z,-10.07
2024-01-10T05:43:31.617Z,-10.05
2024-01-10T05:46:00.348Z,-10.08
2024-01-10T05:48:29.321Z,-10.01
2024-01-10T05:50:57.630Z,-9.96
2024-01-10T05:53:27.929Z,-9.78
2024-01-10T05:55:56.318Z,-10.03
2024-01-10T05:58:24.755Z,-9.90
2024-01-10T06:00:53.324Z,-9.96
2024-01-10T06:03:21.656Z,-9.98
2024-01-10T06:05:50.278Z,-9.99
2024-01-10T06:08:21.554Z,-9.92
2024-01-10T06:10:52.011Z,-9.85
2024-01-10T06:13:20.593Z,-9.98
2024-01-10T06:15:48.964Z,-9.90
2024-01-10T06:18:17.516Z,-10.04
2024-01-10T06:20:49.084Z,-10.03
2024-01-10T06:23:17.727Z,-10.14
2024-01-10T06:25:46.344Z,-10.09
2024-01-10T06:28:16.488Z,-10.17
2024-01-10T06:30:45.139Z,-10.14
2024-01-10T06:33:14.247Z,-10.16
2024-01-10T06:35:44.658Z,-10.13
2024-01-10T06:38:13.435Z,-10.16
2024-01-10T06:40:42.264Z,-10.14
2024-01-10T06:43:10.883Z,-10.07
2024-01-10T06:45:41.393Z,-10.03
2024-01-10T06:48:10.490Z,-10.03
2024-01-10T06:50:39.904Z,-10.04
2024-01-10T06:53:09.253Z,-10.07
2024-01-10T06:55:38.670Z,-10.07
2024-01-10T06:58:07.577Z,-10.12
2024-01-10T07:00:36.325Z,-10.19
2024-01-10T07:03:06.462Z,-10.32
2024-01-10T07:05:35.520Z,-9.99
2024-01-10T07:08:05.615Z,-9.93
2024-01-10T07:10:34.071Z,-10.04
2024-01-10T07:13:05.649Z,-9.99
2024-01-10T07:15:34.014Z,-9.94
2024-01-10T07:18:02.653Z,-10.02
2024-01-10T07:20:32.848Z,-9.99
2024-01-10T07:23:01.634Z,-9.94
2024-01-10T07:25:30.320Z,-9.98
2024-01-10T07:28:00.203Z,-9.81
2024-01-10T07:30:29.143Z,-9.85
2024-01-10T07:33:00.888Z,-9.81
2024-01-10T07:35:30.534Z,-9.76
2024-01-10T07:38:00.581Z,-9.76
2024-01-10T07:40:28.959Z,-9.65
2024-01-10T07:42:57.780Z,-9.66
2024-01-10T07:45:26.412Z,-9.56
2024-01-10T07:47:56.102Z,-9.28
2024-01-10T07:50:28.724Z,-9.51
2024-01-10T07:52:57.717Z,-9.36
2024-01-10T07:55:30.793Z,-9.07
2024-01-10T07:57:59.307Z,-8.88
2024-01-10T08:00:27.710Z,-8.65
2024-01-10T08:02:56.746Z,-8.38
2024-01-10T08:05:25.503Z,-8.22
2024-01-10T08:07:54.047Z,-8.06
2024-01-10T08:10:23.555Z,-8.08
2024-01-10T08:12:54.214Z,-7.86
2024-01-10T08:15:23.111Z,-7.45
2024-01-10T08:17:52.007Z,-7.46
2024-01-10T08:20:22.675Z,-7.12
2024-01-10T08:22:51.489Z,-7.16
2024-01-10T08:25:20.254Z,-6.93
2024-01-10T08:27:50.115Z,-6.83
2024-01-10T08:30:20.313Z,-6.71
2024-01-10T08:32:49.174Z,-6.76
2024-01-10T08:35:17.770Z,-6.73
2024-01-10T08:37:47.918Z,-6.55
2024-01-10T08:40:17.931Z,-6.46
2024-01-10T08:42:46.654Z,-6.20
2024-01-10T08:45:16.411Z,-6.35
2024-01-10T08:47:46.723Z,-6.07
2024-01-10T08:50:16.016Z,-5.97
2024-01-10T08:52:44.463Z,-6.06
2024-01-10T08:55:14.318Z,-6.04
2024-01-10T08:57:43.829Z,-5.87
2024-01-10T09:00:14.329Z,-6.08
2024-01-10T09:02:43.340Z,-6.14
2024-01-10T09:05:13.898Z,-6.05
2024-01-10T09:07:44.072Z,-5.76
2024-01-10T09:10:13.269Z,-5.41
2024-01-10T09:12:47.639Z,-5.57
2024-01-10T09:15:17.011Z,-5.31
2024-01-10T09:17:45.893Z,-5.52
2024-01-10T09:20:16.011Z,-5.42
2024-01-10T09:22:48.511Z,-5.13
2024-01-10T09:25:20.884Z,-5.50
2024-01-10T09:27:50.156Z,-5.45
2024-01-10T09:30:19.658Z,-5.04
2024-01-10T09:32:48.784Z,-4.85
2024-01-10T09:35:20.088Z,-4.65
2024-01-10T09:37:49.033Z,-4.41
2024-01-10T09:40:19.104Z,-4.20
2024-01-10T09:42:47.779Z,-4.42
2024-01-10T09:45:19.042Z,-4.07
2024-01-10T09:47:51.158Z,-3.94
2024-01-10T09:50:21.293Z,-4.42
2024-01-10T09:52:53.819Z,-3.88
2024-01-10T09:55:29.225Z,-3.43
2024-01-10T09:57:57.553Z,-2.97
2024-01-10T10:00:26.899Z,-2.77
2024-01-10T10:02:56.855Z,-2.77
2024-01-10T10:05:27.686Z,-2.73
2024-01-10T10:07:56.447Z,-2.28
2024-01-10T10:10:24.971Z,-2.01
2024-01-10T10:12:55.279Z,-1.99
2024-01-10T10:15:24.598Z,-1.75
2024-01-10T10:17:55.465Z,-1.34
2024-01-10T10:20:24.897Z,-1.11
2024-01-10T10:23:02.950Z,-0.96
2024-01-10T10:25:33.803Z,-1.11
2024-01-10T10:28:03.526Z,-1.27
2024-01-10T10:30:33.767Z,-1.37
2024-01-10T10:33:04.833Z,-1.51
2024-01-10T10:35:39.691Z,-1.80
2024-01-10T10:38:15.230Z,-1.73
2024-01-10T10:40:46.208Z,-1.48
2024-01-10T10:43:16.937Z,-0.90
2024-01-10T10:45:50.197Z,-1.51
2024-01-10T10:48:20.936Z,-1.33
2024-01-10T10:50:53.581Z,-1.08
2024-01-10T10:53:24.293Z,-1.08
2024-01-10T10:55:53.278Z,-0.53
2024-01-10T10:58:25.038Z,-0.77
2024-01-10T11:00:54.957Z,-0.70
2024-01-10T11:03:24.665Z,-1.21
2024-01-10T11:05:53.404Z,-1.07
2024-01-10T11:08:24.858Z,-0.68
2024-01-10T11:10:55.968Z,-0.64
2024-01-10T11:13:47.940Z,-1.25
2024-01-10T11:16:47.319Z,-1.14
2024-01-10T11:19:54.620Z,-1.02
2024-01-10T11:22:40.426Z,-0.72
2024-01-10T11:25:10.762Z,-0.68
2024-01-10T11:27:39.622Z,-0.75
2024-01-10T11:30:10.120Z,-0.74
2024-01-10T11:32:43.400Z,-0.81
2024-01-10T11:35:22.160Z,-0.55
2024-01-10T11:37:52.940Z,-0.54
2024-01-10T11:40:51.196Z,-0.48
2024-01-10T11:43:22.890Z,-0.40
2024-01-10T11:45:55.048Z,-0.67
2024-01-10T11:48:34.325Z,-0.55
2024-01-10T11:51:02.998Z,-0.50
2024-01-10T11:53:41.932Z,-0.36
2024-01-10T11:56:25.869Z,-0.40
2024-01-10T11:59:03.624Z,-0.44
2024-01-10T12:01:33.341Z,-0.18
2024-01-10T12:04:12.838Z,-0.07
2024-01-10T12:06:49.295Z,0.07
2024-01-10T12:09:18.788Z,0.15
2024-01-10T12:11:49.634Z,-0.12
2024-01-10T12:14:18.665Z,-0.13
2024-01-10T12:16:50.044Z,-0.20
2024-01-10T12:19:19.019Z,-0.24
2024-01-10T12:21:48.618Z,-0.06
2024-01-10T12:24:18.077Z,-0.03
2024-01-10T12:26:48.474Z,-0.31
2024-01-10T12:29:21.347Z,-0.21
2024-01-10T12:31:50.446Z,-0.08
2024-01-10T12:34:19.168Z,0.21
2024-01-10T12:36:48.298Z,-0.01
2024-01-10T12:39:16.707Z,-0.07
2024-01-10T12:41:46.360Z,0.33
2024-01-10T12:44:16.938Z,0.09
2024-01-10T12:46:55.073Z,0.03
2024-01-10T12:49:25.066Z,0.15
2024-01-10T12:51:53.464Z,0.06
2024-01-10T12:54:22.124Z,0.00
2024-01-10T12:56:51.647Z,0.05
2024-01-10T12:59:21.489Z,-0.14
2024-01-10T13:01:50.138Z,-0.07
2024-01-10T13:04:18.543Z,-0.11
2024-01-10T13:06:46.880Z,-0.30
2024-01-10T13:09:15.295Z,-0.14
2024-01-10T13:11:44.082Z,-0.02
2024-01-10T13:14:12.690Z,-0.16
2024-01-10T13:16:49.681Z,-0.18
2024-01-10T13:19:25.285Z,-0.08
2024-01-10T13:21:54.623Z,0.00
2024-01-10T13:24:23.498Z,-0.01
2024-01-10T13:26:51.795Z,0.14
2024-01-10T13:29:20.739Z,0.05
2024-01-10T13:31:51.969Z,0.09
2024-01-10T13:34:21.215Z,0.36
2024-01-10T13:36:49.598Z,0.21
2024-01-10T13:39:17.828Z,0.14
2024-01-10T13:41:46.059Z,0.30
2024-01-10T13:44:14.433Z,0.26
2024-01-10T13:46:42.979Z,0.27
2024-01-10T13:49:12.957Z,0.29
2024-01-10T13:51:41.880Z,0.31
2024-01-10T13:54:10.741Z,0.16
2024-01-10T13:56:40.647Z,0.24
2024-01-10T13:59:09.100Z,0.28
2024-01-10T14:01:38.353Z,0.05
2024-01-10T14:04:08.051Z,-0.20
2024-01-10T14:06:37.951Z,-0.24
2024-01-10T14:09:06.455Z,-0.27
2024-01-10T14:11:36.273Z,-0.36
2024-01-10T14:14:04.949Z,-0.33
2024-01-10T14:16:33.456Z,-0.29
2024-01-10T14:19:02.068Z,-0.40
2024-01-10T14:21:32.177Z,-0.57
2024-01-10T14:24:04.042Z,-0.67
2024-01-10T14:26:32.545Z,-0.86
2024-01-10T14:29:01.146Z,-0.92
2024-01-10T14:31:38.536Z,-1.03
2024-01-10T14:34:18.920Z,-1.10
2024-01-10T14:36:47.434Z,-1.11
2024-01-10T14:39:17.221Z,-1.26
2024-01-10T14:41:45.582Z,-1.36
2024-01-10T14:44:13.872Z,-1.44
2024-01-10T14:46:48.031Z,-1.52
2024-01-10T14:49:21.445Z,-1.57
2024-01-10T14:51:50.281Z,-1.55
2024-01-10T14:54:22.307Z,-1.61
2024-01-10T14:56:50.579Z,-1.52
2024-01-10T14:59:20.459Z,-1.58
2024-01-10T15:01:52.342Z,-1.64
2024-01-10T15:04:20.869Z,-1.69
2024-01-10T15:06:49.193Z,-1.79
2024-01-10T15:09:18.228Z,-1.80
2024-01-10T15:11:47.898Z,-1.98
2024-01-10T15:14:17.529Z,-2.07
2024-01-10T15:16:47.314Z,-2.16
2024-01-10T15:19:15.941Z,-2.20
2024-01-10T15:21:45.448Z,-2.31
2024-01-10T15:24:13.669Z,-2.36
2024-01-10T15:26:43.301Z,-2.43
2024-01-10T15:29:13.265Z,-2.72
2024-01-10T15:31:41.912Z,-2.53
2024-01-10T15:34:10.794Z,-2.58
2024-01-10T15:36:45.158Z,-2.54
2024-01-10T15:39:15.223Z,-2.71
2024-01-10T15:41:43.830Z,-2.63
2024-01-10T15:44:16.481Z,-2.67
2024-01-10T15:46:45.212Z,-2.71
2024-01-10T15:49:14.037Z,-2.74
2024-01-10T15:51:42.340Z,-2.77
2024-01-10T15:54:10.801Z,-2.75
2024-01-10T15:56:42.379Z,-2.93
2024-01-10T15:59:12.164Z,-2.96
2024-01-10T16:01:41.873Z,-2.80
2024-01-10T16:04:11.117Z,-2.85
2024-01-10T16:06:39.809Z,-2.76
2024-01-10T16:09:08.096Z,-2.84
2024-01-10T16:11:43.511Z,-2.83
2024-01-10T16:14:11.983Z,-2.86
2024-01-10T16:16:41.654Z,-2.91
2024-01-10T16:19:10.081Z,-2.92
2024-01-10T16:21:38.396Z,-2.90
2024-01-10T16:24:07.164Z,-2.97
2024-01-10T16:26:35.433Z,-3.00
2024-01-10T16:29:04.865Z,-3.08
2024-01-10T16:31:33.188Z,-3.08
2024-01-10T16:34:02.987Z,-3.14
2024-01-10T16:36:31.245Z,-3.10
2024-01-10T16:38:59.443Z,-3.14
2024-01-10T16:41:28.397Z,-3.26
2024-01-10T16:43:56.788Z,-3.17
2024-01-10T16:46:25.075Z,-3.17
2024-01-10T16:48:53.403Z,-3.24
2024-01-10T16:51:23.077Z,-3.20
2024-01-10T16:53:51.285Z,-3.17
2024-01-10T16:56:19.596Z,-3.24
2024-01-10T16:58:48.053Z,-3.23
2024-01-10T17:01:16.415Z,-3.17
2024-01-10T17:03:44.720Z,-3.21
2024-01-10T17:06:13.208Z,-3.14
2024-01-10T17:08:42.924Z,-3.24
2024-01-10T17:11:11.280Z,-3.17
2024-01-10T17:13:39.591Z,-3.31
2024-01-10T17:16:09.858Z,-3.25
2024-01-10T17:18:38.165Z,-3.20
2024-01-10T17:21:08.524Z,-3.22
2024-01-10T17:23:36.824Z,-3.28
2024-01-10T17:26:06.616Z,-3.33
2024-01-10T17:28:34.924Z,-3.65
2024-01-10T17:31:03.387Z,-3.85
2024-01-10T17:33:34.133Z,-3.87
2024-01-10T17:36:02.372Z,-3.75
2024-01-10T17:38:30.960Z,-4.07
2024-01-10T17:40:59.308Z,-4.14
2024-01-10T17:43:29.135Z,-4.16
2024-01-10T17:45:57.304Z,-4.45
2024-01-10T17:48:25.683Z,-4.55
2024-01-10T17:50:53.967Z,-4.64
2024-01-10T17:53:22.182Z,-4.40
2024-01-10T17:55:50.604Z,-4.36
2024-01-10T17:58:18.826Z,-4.50
2024-01-10T18:00:48.554Z,-4.58
2024-01-10T18:03:17.580Z,-4.39
2024-01-10T18:05:46.046Z,-4.58
2024-01-10T18:08:14.408Z,-4.84
2024-01-10T18:10:43.037Z,-4.81
2024-01-10T18:15:39.695Z,-4.89
2024-01-10T18:18:09.739Z,-4.64
2024-01-10T18:20:38.059Z,-4.75
2024-01-10T18:23:06.546Z,-4.84
2024-01-10T18:25:37.413Z,-5.03
2024-01-10T18:28:08.660Z,-5.05
2024-01-10T18:30:36.895Z,-5.22
2024-01-10T18:33:06.656Z,-5.04
2024-01-10T18:35:36.564Z,-5.22
2024-01-10T18:38:05.680Z,-5.21
2024-01-10T18:40:33.984Z,-5.25
2024-01-10T18:43:02.651Z,-5.44
2024-01-10T18:45:31.018Z,-5.53
2024-01-10T18:47:59.408Z,-5.58
2024-01-10T18:50:27.798Z,-5.66
2024-01-10T18:52:59.662Z,-5.79
2024-01-10T18:55:27.932Z,-5.34
2024-01-10T18:57:56.230Z,-5.51
2024-01-10T19:00:25.038Z,-5.64
2024-01-10T19:02:53.500Z,-5.63
2024-01-10T19:05:22.510Z,-5.39
2024-01-10T19:07:54.896Z,-5.65
2024-01-10T19:10:25.022Z,-5.72
2024-01-10T19:12:54.618Z,-5.80
2024-01-10T19:15:22.848Z,-5.77
2024-01-10T19:17:51.172Z,-6.05
2024-01-10T19:20:19.616Z,-6.14
2024-01-10T19:22:48.407Z,-6.21
2024-01-10T19:25:16.818Z,-6.42
2024-01-10T19:27:46.451Z,-6.47
2024-01-10T19:30:22.270Z,-6.51
2024-01-10T19:32:52.065Z,-6.48
2024-01-10T19:35:20.645Z,-6.31
2024-01-10T19:37:49.242Z,-6.39
2024-01-10T19:40:17.537Z,-6.40
2024-01-10T19:42:47.070Z,-6.57
2024-01-10T19:45:15.333Z,-6.67
2024-01-10T19:47:43.760Z,-6.72
2024-01-10T19:50:13.849Z,-6.83
2024-01-10T19:52:42.274Z,-6.78
2024-01-10T19:55:11.402Z,-6.80
2024-01-10T19:57:39.754Z,-6.90
2024-01-10T20:00:12.526Z,-6.79
2024-01-10T20:02:42.118Z,-6.91
2024-01-10T20:05:11.537Z,-6.85
2024-01-10T20:07:39.962Z,-6.96
2024-01-10T20:10:09.938Z,-7.03
2024-01-10T20:12:38.271Z,-7.01
2024-01-10T20:15:07.369Z,-6.98
2024-01-10T20:17:37.346Z,-7.04
2024-01-10T20:20:06.591Z,-7.10
2024-01-10T20:22:35.273Z,-7.15
2024-01-10T20:25:03.465Z,-7.11
2024-01-10T20:27:31.651Z,-7.13
2024-01-10T20:30:00.537Z,-7.09
2024-01-10T20:32:28.960Z,-7.11
2024-01-10T20:34:58.858Z,-7.13
2024-01-10T20:37:27.116Z,-7.17
2024-01-10T20:39:55.407Z,-7.15
2024-01-10T20:42:24.928Z,-7.16
2024-01-10T20:44:53.225Z,-7.30
2024-01-10T20:47:28.022Z,-7.48
2024-01-10T20:49:56.601Z,-7.45
2024-01-10T20:52:26.371Z,-7.47
2024-01-10T20:54:54.901Z,-7.60
2024-01-10T20:57:23.862Z,-7.55
2024-01-10T20:59:55.417Z,-7.60
2024-01-10T21:02:24.270Z,-7.66
2024-01-10T21:04:52.721Z,-7.51
2024-01-10T21:07:21.534Z,-7.11
2024-01-10T21:09:52.560Z,-7.08
2024-01-10T21:12:20.768Z,-7.37
2024-01-10T21:14:50.890Z,-6.99
2024-01-10T21:17:19.339Z,-7.19
2024-01-10T21:19:47.787Z,-7.48
2024-01-10T21:22:16.178Z,-7.59
2024-01-10T21:24:44.586Z,-7.68
2024-01-10T21:27:14.365Z,-7.68
2024-01-10T21:29:42.680Z,-7.71
2024-01-10T21:32:11.162Z,-7.74
2024-01-10T21:34:39.425Z,-7.75
2024-01-10T21:37:08.554Z,-7.87
2024-01-10T21:39:36.895Z,-7.98
2024-01-10T21:42:05.958Z,-7.92
2024-01-10T21:44:35.795Z,-7.84
2024-01-10T21:47:07.112Z,-7.99
2024-01-10T21:49:35.678Z,-8.07
2024-01-10T21:52:04.090Z,-7.97
2024-01-10T21:54:34.023Z,-7.99
2024-01-10T21:57:02.628Z,-8.07
2024-01-10T21:59:31.151Z,-8.06
2024-01-10T22:02:01.642Z,-8.01
2024-01-10T22:04:30.193Z,-8.07
2024-01-10T22:06:58.627Z,-8.10
2024-01-10T22:09:26.871Z,-8.07
2024-01-10T22:11:55.143Z,-8.03
2024-01-10T22:14:23.418Z,-8.16
2024-01-10T22:16:51.880Z,-8.17
2024-01-10T22:19:21.673Z,-8.15
2024-01-10T22:21:50.131Z,-8.22
2024-01-10T22:24:18.366Z,-8.20
2024-01-10T22:26:46.642Z,-8.26
2024-01-10T22:29:15.116Z,-7.99
2024-01-10T22:31:43.532Z,-7.87
2024-01-10T22:34:11.981Z,-8.11
2024-01-10T22:36:41.840Z,-8.09
2024-01-10T22:39:10.911Z,-8.21
2024-01-10T22:41:39.167Z,-8.33
2024-01-10T22:44:07.534Z,-8.31
2024-01-10T22:46:36.089Z,-8.26
2024-01-10T22:49:04.379Z,-8.30
2024-01-10T22:51:32.649Z,-8.23
2024-01-10T22:54:03.484Z,-8.33
2024-01-10T22:56:31.900Z,-8.30
2024-01-10T22:59:00.526Z,-8.33
2024-01-10T23:01:28.948Z,-8.41
2024-01-10T23:03:57.261Z,-8.40
2024-01-10T23:06:25.505Z,-8.43
2024-01-10T23:08:54.006Z,-8.51
2024-01-10T23:11:23.740Z,-8.39
2024-01-10T23:13:51.927Z,-8.09
2024-01-10T23:16:20.166Z,-7.95
2024-01-10T23:18:48.534Z,-8.04
2024-01-10T23:21:16.889Z,-8.13
2024-01-10T23:23:45.357Z,-8.23
2024-01-10T23:26:13.834Z,-8.25
2024-01-10T23:28:43.527Z,-8.20
2024-01-10T23:31:16.756Z,-8.27
2024-01-10T23:33:45.152Z,-8.24
2024-01-10T23:36:13.837Z,-8.50
2024-01-10T23:38:42.282Z,-8.59
2024-01-10T23:41:10.572Z,-8.61
2024-01-10T23:43:38.886Z,-8.59
2024-01-10T23:46:09.318Z,-8.52
2024-01-10T23:48:37.849Z,-8.59
2024-01-10T23:51:06.290Z,-8.66
2024-01-10T23:53:34.592Z,-8.69
2024-01-10T23:56:02.950Z,-8.68
2024-01-10T23:58:31.241Z,-8.73
